Time;durP1;ratioP1;P1;durP2;ratioP2;P2;SDS_P1;SDS_P2;PMS_P1;PMS_P2;Temp;Humidity;BMP_temperature;BMP_pressure;BME280_temperature;BME280_humidity;BME280_pressure;Samples;Min_cycle;Max_cycle;Signal;HPM_P1;HPM_P2
2022/05/24 00:01:05;;;;;;;3.63;2.40;;;;;;;19.79;86.48;97042.66;4146957;28;20635;-92
2022/05/24 00:03:12;;;;;;;3.70;2.03;;;;;;;19.76;87.72;97046.47;4142234;28;20670;-92
2022/05/24 00:05:17;;;;;;;2.87;2.33;;;;;;;19.72;86.76;97039.09;4143611;28;21252;-91
2022/05/24 00:07:20;;;;;;;3.10;2.20;;;;;;;19.67;87.46;97060.81;4142304;28;21233;-93
2022/05/24 00:09:23;;;;;;;3.90;2.27;;;;;;;19.62;88.56;97065.00;4122395;28;20758;-92
2022/05/24 00:11:27;;;;;;;7.67;2.63;;;;;;;19.54;89.63;97071.22;4143664;28;20638;-92
2022/05/24 00:13:31;;;;;;;4.83;2.40;;;;;;;19.47;90.62;97072.19;4122619;28;20987;-91
2022/05/24 00:15:35;;;;;;;5.03;2.20;;;;;;;19.40;90.50;97071.25;4128692;28;20639;-92
2022/05/24 00:17:38;;;;;;;2.90;2.60;;;;;;;19.32;91.64;97079.28;4158054;28;20671;-92
2022/05/24 00:19:43;;;;;;;3.87;2.40;;;;;;;19.25;92.64;97078.38;4129440;28;20647;-93
2022/05/24 00:21:46;;;;;;;3.30;2.57;;;;;;;19.19;91.78;97087.03;4144642;28;20642;-94
2022/05/24 00:23:50;;;;;;;6.70;2.50;;;;;;;19.13;93.00;97081.66;4144721;28;20630;-93
2022/05/24 00:25:55;;;;;;;2.87;2.60;;;;;;;19.05;93.71;97085.22;4126743;28;21013;-94
2022/05/24 00:27:58;;;;;;;3.50;3.20;;;;;;;19.03;93.39;97089.03;4127957;28;20655;-93
2022/05/24 00:30:04;;;;;;;5.03;2.60;;;;;;;19.02;93.45;97098.78;4126882;28;20631;-94
2022/05/24 00:32:09;;;;;;;4.93;2.67;;;;;;;19.01;93.32;97102.41;4143211;28;21189;-93
2022/05/24 00:34:12;;;;;;;4.33;2.90;;;;;;;18.98;94.00;97099.28;4124316;28;21316;-93
2022/05/24 00:36:17;;;;;;;3.20;2.60;;;;;;;18.96;94.29;97093.38;4125565;28;20738;-94
2022/05/24 00:38:26;;;;;;;3.20;2.90;;;;;;;18.94;95.28;97096.19;4141101;28;20729;-95
2022/05/24 00:40:39;;;;;;;5.43;3.20;;;;;;;18.92;94.83;97094.72;4154803;28;20621;-93
2022/05/24 00:42:46;;;;;;;3.37;3.07;;;;;;;18.89;94.97;97103.00;4155061;28;21294;-93
2022/05/24 00:44:53;;;;;;;3.33;3.03;;;;;;;18.90;95.54;97102.84;4154055;28;20665;-94
2022/05/24 00:47:00;;;;;;;3.67;3.30;;;;;;;18.88;95.79;97104.84;4141198;28;20646;-94
2022/05/24 00:49:06;;;;;;;3.77;3.40;;;;;;;18.87;95.03;97101.53;4120472;28;20648;-94
2022/05/24 00:51:10;;;;;;;3.93;3.40;;;;;;;18.87;95.86;97112.13;4139069;28;20635;-93
2022/05/24 00:53:19;;;;;;;4.10;3.60;;;;;;;18.85;95.97;97112.28;4127385;28;20692;-93
2022/05/24 00:55:24;;;;;;;4.33;3.70;;;;;;;18.87;96.08;97104.19;4136904;28;21016;-93
2022/05/24 00:57:35;;;;;;;5.70;3.80;;;;;;;18.85;96.48;97108.84;4120532;28;20667;-93
2022/05/24 00:59:42;;;;;;;4.53;3.70;;;;;;;18.81;96.00;97105.75;4142854;28;20642;-95
2022/05/24 01:01:47;;;;;;;4.40;3.63;;;;;;;18.79;96.32;97102.44;4142917;28;20630;-94
2022/05/24 01:03:52;;;;;;;4.10;3.70;;;;;;;18.73;95.49;97097.06;4146604;28;20637;-94
2022/05/24 01:05:55;;;;;;;4.90;3.73;;;;;;;18.66;96.11;97093.50;4130313;28;20666;-95
2022/05/24 01:07:59;;;;;;;5.00;3.70;;;;;;;18.65;96.11;97095.31;4146462;28;20748;-93
2022/05/24 01:10:04;;;;;;;3.70;3.40;;;;;;;18.65;96.61;97103.22;4156931;28;20718;-94
2022/05/24 01:12:12;;;;;;;4.77;4.20;;;;;;;18.60;96.69;97100.31;4130432;28;21218;-94
2022/05/24 01:14:17;;;;;;;4.40;3.30;;;;;;;18.54;96.71;97087.81;4144769;28;20637;-93
2022/05/24 01:16:21;;;;;;;3.50;3.20;;;;;;;18.54;96.50;97084.38;4140907;28;20634;-94
2022/05/24 01:18:25;;;;;;;4.20;3.80;;;;;;;18.53;96.06;97082.72;4126477;28;20635;-94
2022/05/24 01:20:29;;;;;;;3.70;3.20;;;;;;;18.49;96.54;97074.31;4128525;28;20631;-95
2022/05/24 01:22:46;;;;;;;4.13;3.60;;;;;;;18.49;97.12;97082.25;4143829;28;20669;-93
2022/05/24 01:24:56;;;;;;;4.03;3.63;;;;;;;18.47;96.27;97089.50;4145445;28;21253;-94
2022/05/24 01:27:02;;;;;;;4.27;3.57;;;;;;;18.45;97.19;97096.00;4146899;28;20677;-93
2022/05/24 01:29:07;;;;;;;5.10;4.00;;;;;;;18.40;96.36;97092.22;4144014;28;20993;-94
2022/05/24 01:31:11;;;;;;;5.23;4.00;;;;;;;18.33;96.35;97099.19;4146058;28;20737;-94
2022/05/24 01:37:56;;;;;;;4.07;3.67;;;;;;;18.19;97.42;97086.75;4133546;28;21021;-94
2022/05/24 01:40:00;;;;;;;8.40;3.73;;;;;;;18.19;97.27;97095.53;4133708;28;20632;-92
2022/05/24 01:42:06;;;;;;;4.23;3.83;;;;;;;18.23;97.56;97083.59;4133028;28;20679;-93
2022/05/24 01:44:10;;;;;;;5.03;4.00;;;;;;;18.22;98.03;97078.50;4127012;28;20662;-94
2022/05/24 01:46:14;;;;;;;4.60;4.20;;;;;;;18.25;98.16;97076.34;4130269;28;20754;-94
2022/05/24 01:48:20;;;;;;;5.00;4.03;;;;;;;18.25;98.14;97076.34;4160263;28;21219;-92
2022/05/24 01:50:24;;;;;;;4.57;4.13;;;;;;;18.24;98.66;97068.59;4144187;28;20634;-94
2022/05/24 01:52:30;;;;;;;4.97;3.90;;;;;;;18.26;98.22;97072.69;4161610;28;20619;-93
2022/05/24 01:54:36;;;;;;;5.97;3.67;;;;;;;18.25;98.29;97075.50;4143404;28;20713;-94
2022/05/24 01:56:43;;;;;;;4.83;3.87;;;;;;;18.24;98.72;97055.41;4141145;28;20665;-94
2022/05/24 01:58:50;;;;;;;6.90;4.33;;;;;;;18.26;98.40;97062.13;4144982;28;21120;-95
2022/05/24 02:00:59;;;;;;;4.93;4.30;;;;;;;18.26;97.93;97058.69;4160796;28;20643;-95
2022/05/24 02:03:13;;;;;;;5.30;4.50;;;;;;;18.24;97.56;97060.69;4160933;28;20996;-94
2022/05/24 02:05:32;;;;;;;5.70;5.10;;;;;;;18.26;97.91;97063.94;4147565;28;20650;-94
2022/05/24 02:07:35;;;;;;;5.13;4.10;;;;;;;18.27;98.48;97066.41;4130022;28;21061;-94
2022/05/24 02:09:41;;;;;;;4.83;4.43;;;;;;;18.28;97.95;97061.94;4130935;28;20758;-94
2022/05/24 02:11:45;;;;;;;4.77;4.30;;;;;;;18.26;98.09;97051.56;4144591;28;21204;-94
2022/05/24 02:13:50;;;;;;;5.67;4.80;;;;;;;18.24;97.61;97053.56;4143457;28;20638;-93
2022/05/24 02:15:55;;;;;;;5.10;4.60;;;;;;;18.25;97.70;97064.94;4141923;28;20723;-94
2022/05/24 02:18:02;;;;;;;4.80;4.27;;;;;;;18.25;97.71;97059.66;4146074;28;20630;-95
2022/05/24 02:20:09;;;;;;;4.77;4.37;;;;;;;18.26;96.75;97061.31;4127128;28;20663;-95
2022/05/24 02:22:17;;;;;;;5.07;4.30;;;;;;;18.25;97.70;97046.47;4141015;28;20627;-94
2022/05/24 02:24:22;;;;;;;4.77;4.37;;;;;;;18.24;97.41;97053.56;4143546;28;20761;-94
2022/05/24 02:26:26;;;;;;;5.20;4.43;;;;;;;18.24;97.23;97061.50;4139645;28;20643;-95
2022/05/24 02:28:31;;;;;;;5.33;4.83;;;;;;;18.24;97.15;97058.84;4122238;28;20627;-94
2022/05/24 02:30:39;;;;;;;5.40;4.60;;;;;;;18.22;97.15;97066.13;4140328;28;21033;-94
2022/05/24 02:32:42;;;;;;;5.63;5.13;;;;;;;18.20;97.80;97056.75;4157013;28;20698;-94
2022/05/24 02:34:45;;;;;;;5.27;4.77;;;;;;;18.20;98.00;97057.56;4127042;28;20728;-95
2022/05/24 02:36:50;;;;;;;5.03;4.63;;;;;;;18.17;97.06;97052.63;4126457;28;20654;-95
2022/05/24 02:38:53;;;;;;;5.33;4.83;;;;;;;18.18;97.42;97058.75;4127216;28;20636;-93
2022/05/24 02:43:17;;;;;;;6.13;5.30;;;;;;;18.17;98.08;97057.09;4142756;28;20639;-95
2022/05/24 02:45:21;;;;;;;5.30;4.80;;;;;;;18.18;97.67;97058.75;4143645;28;20657;-93
2022/05/24 02:47:26;;;;;;;5.70;5.10;;;;;;;18.16;98.50;97058.06;4126915;28;20683;-95
2022/05/24 02:49:29;;;;;;;5.33;4.73;;;;;;;18.17;98.60;97062.38;4158300;28;20626;-93
2022/05/24 02:51:33;;;;;;;5.60;4.60;;;;;;;18.15;98.42;97048.53;4138970;28;20642;-95
2022/05/24 02:53:37;;;;;;;5.93;5.33;;;;;;;18.15;98.17;97054.63;4142273;28;20626;-94
2022/05/24 02:55:40;;;;;;;5.30;4.77;;;;;;;18.12;98.71;97062.88;4143545;28;20623;-94
2022/05/24 02:57:44;;;;;;;5.97;5.37;;;;;;;18.13;98.28;97058.44;4126991;28;20636;-94
2022/05/24 02:59:47;;;;;;;5.80;5.10;;;;;;;18.07;97.60;97044.09;4137816;28;21186;-95
2022/05/24 03:01:50;;;;;;;5.67;5.07;;;;;;;18.07;97.56;97045.91;4155044;28;20996;-94
2022/05/24 03:03:56;;;;;;;5.60;5.00;;;;;;;18.05;97.47;97046.06;4143435;28;20635;-96
2022/05/24 03:05:59;;;;;;;5.40;4.90;;;;;;;18.01;97.28;97046.59;4142278;28;20647;-94
2022/05/24 03:10:23;;;;;;;6.50;5.47;;;;;;;17.84;97.59;97037.16;4154606;28;21400;-94
2022/05/24 03:14:47;;;;;;;6.10;5.60;;;;;;;17.82;97.01;97031.25;4139225;28;21228;-94
2022/05/24 03:16:52;;;;;;;6.50;5.60;;;;;;;17.81;97.44;97040.16;4140558;28;20638;-95
2022/05/24 03:18:58;;;;;;;6.60;6.00;;;;;;;17.80;96.96;97027.97;4142267;28;20633;-94
2022/05/24 03:21:01;;;;;;;6.83;6.17;;;;;;;17.79;97.14;97033.41;4125708;28;20648;-94
2022/05/24 03:23:05;;;;;;;6.50;5.90;;;;;;;17.75;97.69;97030.28;4142829;28;20639;-94
2022/05/24 03:25:09;;;;;;;5.97;5.47;;;;;;;17.73;97.51;97036.75;4141589;28;20627;-95
2022/05/24 03:27:13;;;;;;;5.53;5.03;;;;;;;17.73;97.56;97045.47;4125053;28;21092;-94
2022/05/24 03:29:16;;;;;;;6.17;5.67;;;;;;;17.71;97.88;97054.56;4122816;28;20668;-94
2022/05/24 03:31:20;;;;;;;6.83;5.40;;;;;;;17.68;97.11;97050.47;4136892;28;20635;-94
2022/05/24 03:33:25;;;;;;;10.00;5.43;;;;;;;17.68;97.34;97047.81;4138384;28;21177;-94
2022/05/24 03:35:30;;;;;;;5.97;5.37;;;;;;;17.67;97.29;97043.53;4125331;28;20692;-94
2022/05/24 03:37:33;;;;;;;5.70;5.20;;;;;;;17.68;97.33;97050.47;4142564;28;20622;-94
2022/05/24 03:39:36;;;;;;;6.40;5.60;;;;;;;17.69;97.29;97056.56;4138930;28;20656;-95
2022/05/24 03:41:43;;;;;;;5.50;5.00;;;;;;;17.70;97.60;97053.75;4125150;28;21288;-95
2022/05/24 03:43:47;;;;;;;7.63;5.87;;;;;;;17.70;97.56;97056.38;4141843;28;21188;-94
2022/05/24 03:45:50;;;;;;;5.90;5.40;;;;;;;17.69;97.21;97062.63;4131349;28;21079;-94
2022/05/24 03:47:54;;;;;;;5.50;5.00;;;;;;;17.69;97.24;97072.38;4154160;28;20658;-95
2022/05/24 03:49:57;;;;;;;5.60;5.10;;;;;;;17.65;97.22;97071.06;4139750;28;20646;-95
2022/05/24 03:52:02;;;;;;;6.70;5.90;;;;;;;17.65;97.41;97074.56;4139602;28;20933;-94
2022/05/24 03:54:06;;;;;;;6.40;5.80;;;;;;;17.66;97.94;97070.91;4140936;28;20678;-95
2022/05/24 03:56:09;;;;;;;5.70;5.10;;;;;;;17.65;97.76;97069.28;4127146;28;20643;-95
2022/05/24 03:58:12;;;;;;;7.10;5.87;;;;;;;17.68;97.74;97066.28;4138400;28;20740;-95
2022/05/24 04:00:19;;;;;;;5.90;5.30;;;;;;;17.66;97.76;97060.34;4121429;28;20635;-94
2022/05/24 04:02:22;;;;;;;8.67;5.50;;;;;;;17.69;97.88;97067.91;4139674;28;20631;-94
2022/05/24 04:04:25;;;;;;;7.90;5.50;;;;;;;17.64;97.53;97062.34;4139778;28;20736;-95
2022/05/24 04:06:29;;;;;;;6.37;5.70;;;;;;;17.67;97.48;97058.56;4140336;28;20627;-95
2022/05/24 04:08:34;;;;;;;5.90;5.30;;;;;;;17.67;97.69;97062.00;4140287;28;20734;-95
2022/05/24 04:10:38;;;;;;;6.40;5.80;;;;;;;17.69;97.55;97062.63;4142567;28;20630;-95
2022/05/24 04:12:41;;;;;;;5.87;5.27;;;;;;;17.70;97.33;97072.22;4140302;28;20631;-95
2022/05/24 04:14:44;;;;;;;6.20;5.30;;;;;;;17.74;98.04;97085.88;4156603;28;20653;-93
2022/05/24 04:16:52;;;;;;;7.10;6.37;;;;;;;17.77;98.09;97089.00;4141675;28;20637;-95
2022/05/24 04:18:55;;;;;;;6.73;6.07;;;;;;;17.80;98.21;97093.09;4123210;28;24000;-95
2022/05/24 04:20:58;;;;;;;7.50;6.20;;;;;;;17.82;98.45;97084.00;4127247;28;20635;-95
2022/05/24 04:23:02;;;;;;;6.37;5.77;;;;;;;17.82;97.47;97084.00;4136945;28;20638;-95
2022/05/24 04:25:08;;;;;;;6.40;5.80;;;;;;;17.82;97.97;97077.94;4143020;28;20650;-95
2022/05/24 04:27:11;;;;;;;6.13;5.53;;;;;;;17.81;98.04;97077.09;4143857;28;20795;-95
2022/05/24 04:29:15;;;;;;;6.80;5.63;;;;;;;17.83;97.42;97090.09;4136852;28;20670;-94
2022/05/24 04:31:18;;;;;;;6.63;5.90;;;;;;;17.83;97.16;97095.38;4123048;28;20640;-95
2022/05/24 04:33:22;;;;;;;6.60;5.90;;;;;;;17.85;97.74;97091.59;4125844;28;20636;-95
2022/05/24 04:35:25;;;;;;;6.17;5.57;;;;;;;17.84;97.31;97070.66;4141135;28;20670;-94
2022/05/24 04:37:29;;;;;;;7.10;5.87;;;;;;;17.85;96.92;97062.56;4126152;28;20701;-94
2022/05/24 04:39:32;;;;;;;7.93;5.50;;;;;;;17.87;97.09;97071.09;4123600;28;20635;-94
2022/05/24 04:43:59;;;;;;;6.80;5.37;;;;;;;17.86;97.15;97105.59;4142547;28;20734;-95
2022/05/24 04:46:02;;;;;;;6.00;5.47;;;;;;;17.89;96.95;97110.50;4139204;28;20623;-95
2022/05/24 04:48:06;;;;;;;6.57;5.97;;;;;;;17.88;97.50;97117.63;4119593;28;20652;-94
2022/05/24 04:50:13;;;;;;;6.50;5.80;;;;;;;17.89;97.03;97116.63;4137923;28;21072;-95
2022/05/24 04:52:17;;;;;;;6.23;5.50;;;;;;;17.91;96.77;97117.28;4136954;28;20631;-95
2022/05/24 04:54:21;;;;;;;5.90;5.40;;;;;;;17.93;96.36;97112.63;4124304;28;20634;-94
2022/05/24 04:56:24;;;;;;;6.37;5.87;;;;;;;17.93;96.02;97110.00;4126348;28;20639;-94
2022/05/24 04:58:29;;;;;;;7.30;5.80;;;;;;;17.94;95.84;97114.28;4125384;28;20647;-95
2022/05/24 05:00:33;;;;;;;6.53;5.70;;;;;;;17.94;96.32;97112.47;4136991;28;20627;-95
2022/05/24 05:02:36;;;;;;;6.43;5.70;;;;;;;17.93;96.21;97112.63;4138347;28;20638;-94
2022/05/24 05:04:40;;;;;;;7.40;5.60;;;;;;;17.93;95.90;97117.91;4121838;28;21071;-94
2022/05/24 05:06:44;;;;;;;7.00;5.77;;;;;;;17.94;96.11;97111.66;4141246;28;21201;-94
2022/05/24 05:08:48;;;;;;;5.70;5.20;;;;;;;17.95;96.26;97105.34;4137643;28;20669;-94
2022/05/24 05:10:52;;;;;;;6.10;5.50;;;;;;;17.92;96.00;97110.16;4126740;28;20979;-94
2022/05/24 05:12:56;;;;;;;6.70;5.50;;;;;;;17.95;96.32;97118.56;4137924;28;20645;-95
2022/05/24 05:15:00;;;;;;;7.07;5.37;;;;;;;17.90;96.23;97118.25;4125438;28;21344;-95
2022/05/24 05:17:04;;;;;;;6.40;5.80;;;;;;;17.91;96.38;97119.91;4136255;28;20726;-95
2022/05/24 05:19:10;;;;;;;6.10;5.50;;;;;;;17.95;96.35;97121.19;4140837;28;20658;-95
2022/05/24 05:21:17;;;;;;;6.57;5.07;;;;;;;17.99;96.03;97128.59;4122002;28;20736;-95
2022/05/24 05:23:29;;;;;;;6.53;5.50;;;;;;;18.05;95.72;97133.19;4143257;28;20726;-96
2022/05/24 05:25:34;;;;;;;6.93;5.63;;;;;;;18.09;95.73;97133.66;4147985;28;20676;-96
2022/05/24 05:27:43;;;;;;;6.30;5.80;;;;;;;18.09;96.65;97126.56;4162636;28;20666;-96
2022/05/24 05:35:08;;;;;;;5.43;4.93;;;;;;;18.16;96.52;97121.44;4165847;28;20638;-95
2022/05/24 05:37:36;;;;;;;6.90;6.00;;;;;;;18.28;96.40;97134.09;4142584;28;20638;-96
2022/05/24 05:39:46;;;;;;;5.90;5.37;;;;;;;18.30;96.15;97131.25;4143714;28;20631;-96
2022/05/24 05:42:07;;;;;;;6.07;5.47;;;;;;;18.36;96.69;97133.19;4170379;28;20646;-96
2022/05/24 05:45:01;;;;;;;6.00;5.40;;;;;;;18.44;95.74;97150.59;4137041;28;20643;-96
2022/05/24 05:47:05;;;;;;;6.23;5.00;;;;;;;18.47;96.08;97139.69;4125484;28;21206;-96
2022/05/24 05:49:11;;;;;;;5.53;4.83;;;;;;;18.56;95.38;97143.91;4145153;28;20668;-96
2022/05/24 05:51:16;;;;;;;5.50;4.83;;;;;;;18.71;95.21;97151.91;4145580;28;20634;-96
2022/05/24 05:53:21;;;;;;;6.30;5.20;;;;;;;19.02;96.50;97164.06;4131903;28;20714;-96
2022/05/24 05:55:25;;;;;;;6.57;5.63;;;;;;;19.11;94.47;97165.59;4126712;28;21210;-96
2022/05/24 05:57:28;;;;;;;6.53;5.80;;;;;;;19.14;95.29;97162.59;4131235;28;20623;-96
2022/05/24 05:59:32;;;;;;;7.70;4.33;;;;;;;19.16;94.66;97165.91;4145799;28;20626;-95
2022/05/24 06:01:44;;;;;;;5.90;4.97;;;;;;;19.08;94.10;97176.56;4131330;28;20653;-91
2022/05/24 06:03:47;;;;;;;4.77;4.33;;;;;;;19.09;94.98;97167.63;4127679;28;20639;-93
2022/05/24 06:05:53;;;;;;;5.73;5.20;;;;;;;19.10;94.98;97178.00;4127974;28;20635;-94
2022/05/24 06:07:56;;;;;;;5.80;5.20;;;;;;;19.14;94.01;97170.53;4143139;28;20655;-94
2022/05/24 06:10:01;;;;;;;6.50;5.60;;;;;;;19.14;93.94;97175.81;4144623;28;21153;-94
2022/05/24 06:12:05;;;;;;;6.53;5.60;;;;;;;19.14;95.47;97173.19;4155461;28;20622;-92
2022/05/24 06:14:09;;;;;;;8.53;6.73;;;;;;;19.12;95.57;97172.53;4160296;28;20614;-93
2022/05/24 06:16:13;;;;;;;8.13;5.67;;;;;;;19.11;96.26;97168.25;4139411;28;20663;-94
2022/05/24 06:18:18;;;;;;;6.53;5.93;;;;;;;19.12;94.66;97173.34;4159219;28;20638;-94
2022/05/24 06:20:24;;;;;;;7.23;6.53;;;;;;;19.21;96.35;97184.69;4143520;28;20637;-93
2022/05/24 06:22:27;;;;;;;7.30;6.60;;;;;;;19.34;95.76;97182.25;4136056;28;20734;-93
2022/05/24 06:24:31;;;;;;;6.13;5.57;;;;;;;19.30;94.86;97176.50;4143180;28;20745;-94
2022/05/24 06:26:36;;;;;;;6.30;5.70;;;;;;;19.23;94.19;97172.09;4128437;28;21228;-94
2022/05/24 06:28:39;;;;;;;7.00;6.30;;;;;;;19.34;94.66;97175.13;4129243;28;20662;-94
2022/05/24 06:30:42;;;;;;;5.63;5.03;;;;;;;19.70;93.83;97174.25;4124201;28;21277;-94
2022/05/24 06:32:46;;;;;;;4.90;4.40;;;;;;;19.97;93.46;97170.97;4144077;28;21058;-94
2022/05/24 06:34:51;;;;;;;8.43;4.50;;;;;;;20.13;93.17;97173.41;4146024;28;20618;-93
2022/05/24 06:36:57;;;;;;;5.80;3.83;;;;;;;20.26;94.20;97173.56;4130073;28;20741;-93
2022/05/24 06:39:00;;;;;;;4.10;3.70;;;;;;;20.24;92.55;97178.22;4128336;28;20663;-93
2022/05/24 06:41:04;;;;;;;3.57;3.27;;;;;;;20.20;92.19;97179.59;4125448;28;20630;-93
2022/05/24 06:43:09;;;;;;;3.17;2.87;;;;;;;20.17;91.35;97194.03;4156293;28;20646;-95
2022/05/24 06:45:13;;;;;;;3.77;3.20;;;;;;;20.14;91.09;97181.16;4144339;28;20622;-94
2022/05/24 06:47:16;;;;;;;3.87;3.10;;;;;;;20.14;92.54;97181.16;4142487;28;20623;-94
2022/05/24 06:49:24;;;;;;;3.70;3.00;;;;;;;20.12;91.84;97177.06;4141057;28;21209;-95
2022/05/24 06:51:27;;;;;;;4.07;3.10;;;;;;;20.12;92.37;97190.31;4129153;28;21270;-95
2022/05/24 06:53:30;;;;;;;4.40;2.80;;;;;;;20.11;92.08;97192.13;4129714;28;20654;-94
2022/05/24 06:55:34;;;;;;;12.43;9.67;;;;;;;20.09;91.44;97195.97;4127014;28;21275;-93
2022/05/24 06:57:42;;;;;;;3.73;2.70;;;;;;;20.01;91.36;97185.47;4126685;28;20729;-95
2022/05/24 07:02:26;;;;;;;3.93;3.53;;;;;;;19.93;92.17;97196.97;4140687;28;20770;-95
2022/05/24 07:04:32;;;;;;;3.53;3.07;;;;;;;19.86;92.37;97196.09;4130769;28;20627;-96
2022/05/24 07:06:38;;;;;;;3.37;2.97;;;;;;;19.80;92.83;97201.28;4148285;28;20634;-96
2022/05/24 07:08:42;;;;;;;3.90;3.10;;;;;;;19.78;91.92;97203.25;4129496;28;20762;-94
2022/05/24 07:11:22;;;;;;;4.30;3.90;;;;;;;19.73;94.13;97204.81;4170698;28;20648;-97
2022/05/24 07:13:31;;;;;;;5.03;3.70;;;;;;;19.68;93.80;97208.00;4120093;28;21181;-91
2022/05/24 07:15:37;;;;;;;4.47;3.37;;;;;;;19.67;94.03;97209.00;4187484;23;21249;-92
2022/05/24 07:17:40;;;;;;;4.40;4.00;;;;;;;19.66;94.91;97233.81;4159224;28;20633;-90
2022/05/24 07:19:44;;;;;;;7.50;3.83;;;;;;;19.62;94.45;97252.88;4175263;28;20668;-90
2022/05/24 07:21:47;;;;;;;8.73;3.57;;;;;;;19.58;95.72;97312.47;4192104;28;20651;-92
2022/05/24 07:23:51;;;;;;;2.33;1.00;;;;;;;19.17;85.68;97312.97;4179414;28;21308;-91
2022/05/24 07:25:55;;;;;;;3.50;1.17;;;;;;;18.64;83.06;97293.63;4156462;28;20637;-92
2022/05/24 07:27:58;;;;;;;5.10;1.00;;;;;;;18.31;84.37;97307.16;4165691;28;20633;-89
2022/05/24 07:30:01;;;;;;;3.00;0.80;;;;;;;18.03;85.53;97305.91;4168330;28;20684;-89
2022/05/24 07:32:07;;;;;;;3.77;0.93;;;;;;;17.82;86.33;97310.91;4176168;28;20732;-89
2022/05/24 07:34:10;;;;;;;1.80;0.77;;;;;;;17.70;85.28;97322.81;4177217;28;21088;-89
2022/05/24 07:36:14;;;;;;;2.77;0.67;;;;;;;17.59;86.60;97331.06;4189017;28;20651;-91
2022/05/24 07:38:17;;;;;;;2.40;0.73;;;;;;;17.49;86.84;97333.03;4157885;28;20633;-90
2022/05/24 07:47:27;;;;;;;3.13;1.07;;;;;;;17.18;88.80;97333.00;4154389;28;20630;-91
2022/05/24 07:49:30;;;;;;;2.90;1.20;;;;;;;17.14;89.72;97347.50;4168480;28;20664;-90
2022/05/24 07:51:33;;;;;;;2.20;1.00;;;;;;;17.07;89.58;97341.22;4175042;28;20636;-91
2022/05/24 07:53:37;;;;;;;3.20;1.40;;;;;;;17.02;90.43;97354.88;4160220;28;20660;-92
2022/05/24 07:55:41;;;;;;;5.53;1.10;;;;;;;17.01;91.15;97373.50;4191070;28;20715;-91
2022/05/24 07:57:44;;;;;;;2.87;1.10;;;;;;;16.96;89.07;97378.44;4173314;28;21235;-91
2022/05/24 07:59:48;;;;;;;3.80;1.50;;;;;;;16.87;89.69;97382.03;4175656;28;20736;-91
2022/05/24 08:01:51;;;;;;;2.33;1.20;;;;;;;16.79;88.97;97386.44;4174253;28;20623;-90
2022/05/24 08:03:56;;;;;;;1.90;1.10;;;;;;;16.78;91.43;97395.31;4163996;28;21175;-91
2022/05/24 08:05:59;;;;;;;1.87;1.00;;;;;;;16.81;90.49;97393.22;4161037;28;20675;-90
2022/05/24 08:08:03;;;;;;;2.97;1.10;;;;;;;16.84;91.48;97390.25;4158617;28;20673;-91
2022/05/24 08:10:07;;;;;;;1.60;0.80;;;;;;;16.88;91.64;97401.28;4139540;28;20705;-90
2022/05/24 08:12:17;;;;;;;3.10;1.10;;;;;;;16.95;91.05;97389.94;4161946;28;20645;-92
2022/05/24 08:14:21;;;;;;;8.87;1.33;;;;;;;17.03;90.48;97389.97;4175180;28;20637;-91
2022/05/24 08:16:24;;;;;;;1.77;1.00;;;;;;;17.08;91.87;97392.97;4169050;28;20647;-92
2022/05/24 08:18:28;;;;;;;2.17;1.23;;;;;;;17.13;93.06;97391.47;4177745;28;20672;-91
2022/05/24 08:20:34;;;;;;;2.20;1.37;;;;;;;17.21;91.61;97385.41;4173613;28;20632;-92
2022/05/24 08:22:38;;;;;;;2.60;1.20;;;;;;;17.33;91.07;97392.03;4158560;28;20633;-92
2022/05/24 08:24:41;;;;;;;1.93;1.10;;;;;;;17.40;91.74;97400.94;4172964;28;21058;-90
2022/05/24 08:26:45;;;;;;;2.73;1.20;;;;;;;17.46;91.84;97409.03;4192133;28;20634;-90
2022/05/24 08:28:48;;;;;;;3.23;1.30;;;;;;;17.48;91.04;97412.31;4175337;28;20684;-91
2022/05/24 08:30:53;;;;;;;2.20;1.20;;;;;;;17.57;93.04;97411.34;4172125;28;21021;-89
2022/05/24 08:32:57;;;;;;;2.87;1.37;;;;;;;17.62;91.44;97409.00;4174058;28;20758;-89
2022/05/24 08:35:01;;;;;;;3.60;1.40;;;;;;;17.69;91.27;97418.75;4153841;28;20664;-90
2022/05/24 08:37:07;;;;;;;2.43;1.23;;;;;;;17.78;91.27;97409.84;4174751;28;20751;-89
2022/05/24 08:39:10;;;;;;;2.93;1.50;;;;;;;17.84;90.93;97411.00;4157482;28;20730;-90
2022/05/24 08:41:16;;;;;;;3.20;1.37;;;;;;;17.89;90.20;97412.16;4174855;28;20633;-92
2022/05/24 08:43:34;;;;;;;1.57;0.83;;;;;;;17.96;88.07;97411.31;4153251;28;20642;-92
2022/05/24 08:48:25;;;;;;;1.53;1.00;;;;;;;17.92;86.56;97407.38;4153655;28;20645;-91
2022/05/24 08:50:40;;;;;;;2.70;1.23;;;;;;;18.00;86.30;97415.28;4148553;28;20717;-91
2022/05/24 08:52:47;;;;;;;3.80;1.00;;;;;;;18.13;87.69;97420.91;4155480;28;20632;-90
2022/05/24 08:54:51;;;;;;;3.20;1.00;;;;;;;18.26;86.38;97438.88;4173682;28;20644;-90
2022/05/24 08:56:58;;;;;;;2.23;0.90;;;;;;;18.33;85.06;97431.91;4172091;28;20691;-91
2022/05/24 08:59:05;;;;;;;3.10;1.20;;;;;;;18.45;86.69;97429.59;4168744;28;21192;-92
2022/05/24 09:01:15;;;;;;;1.90;1.03;;;;;;;18.65;87.15;97440.59;4173402;28;20634;-91
2022/05/24 09:03:22;;;;;;;1.93;1.20;;;;;;;18.88;87.40;97433.56;4172305;28;20629;-90
2022/05/24 09:05:30;;;;;;;1.63;1.10;;;;;;;19.07;85.23;97428.72;4156214;28;20637;-91
2022/05/24 09:07:39;;;;;;;3.30;1.00;;;;;;;19.23;85.21;97425.97;4171624;28;20670;-92
2022/05/24 09:09:52;;;;;;;1.60;1.00;;;;;;;19.36;82.40;97421.75;4155602;28;21275;-91
2022/05/24 09:12:06;;;;;;;2.23;1.20;;;;;;;19.39;83.47;97439.94;4155393;28;20637;-91
2022/05/24 09:14:12;;;;;;;2.03;1.27;;;;;;;19.37;80.87;97437.47;4182770;28;20623;-90
2022/05/24 09:16:17;;;;;;;2.60;1.20;;;;;;;19.16;79.81;97438.25;4172529;28;20756;-93
2022/05/24 09:18:26;;;;;;;5.60;1.80;;;;;;;19.15;82.67;97437.41;4185962;28;21187;-93
2022/05/24 09:20:34;;;;;;;2.37;1.73;;;;;;;19.29;84.97;97439.34;4155089;28;20633;-91
2022/05/24 09:22:37;;;;;;;3.30;2.07;;;;;;;19.41;84.43;97445.88;4165654;28;20647;-90
2022/05/24 09:24:44;;;;;;;1.70;1.10;;;;;;;19.45;81.93;97445.38;4178196;28;20981;-91
2022/05/24 09:27:09;;;;;;;3.93;0.90;;;;;;;19.45;80.63;97449.81;4174338;28;20633;-92
2022/05/24 09:29:14;;;;;;;1.60;1.00;;;;;;;19.49;81.58;97446.66;4156112;28;20654;-92
2022/05/24 09:31:24;;;;;;;2.27;0.97;;;;;;;19.57;82.89;97438.66;4179977;28;20669;-89
2022/05/24 09:33:31;;;;;;;1.73;1.00;;;;;;;19.58;81.92;97442.94;4164458;28;20740;-92
2022/05/24 09:35:41;;;;;;;3.70;1.07;;;;;;;19.58;81.59;97435.00;4160089;28;20672;-93
2022/05/24 09:38:08;;;;;;;3.80;1.20;;;;;;;19.53;75.58;97433.88;4176463;28;20671;-92
2022/05/24 09:40:18;;;;;;;1.97;0.90;;;;;;;19.54;77.17;97446.94;4159805;28;21208;-93
2022/05/24 09:42:28;;;;;;;3.20;1.00;;;;;;;19.66;78.87;97440.25;4172692;28;20670;-91
2022/05/24 09:44:46;;;;;;;2.30;0.87;;;;;;;20.09;79.71;97447.56;4197613;28;20669;-92
2022/05/24 09:46:51;;;;;;;4.70;1.07;;;;;;;20.26;78.79;97451.69;4170199;28;20651;-92
2022/05/24 09:49:27;;;;;;;3.10;1.10;;;;;;;20.35;78.35;97456.75;4160015;28;21217;-93
2022/05/24 09:51:35;;;;;;;5.83;1.27;;;;;;;20.33;78.23;97459.56;4156104;28;20763;-93
2022/05/24 09:53:51;;;;;;;2.17;0.87;;;;;;;20.38;76.76;97459.03;4172194;28;20632;-92
2022/05/24 09:55:59;;;;;;;6.63;1.17;;;;;;;20.47;74.21;97472.00;4169963;28;20628;-93
2022/05/24 09:58:17;;;;;;;1.60;0.87;;;;;;;20.58;75.17;97474.25;4174121;28;20627;-92
2022/05/24 10:00:23;;;;;;;2.00;0.80;;;;;;;20.71;75.98;97468.34;4174841;28;21169;-90
2022/05/24 10:02:29;;;;;;;2.00;1.10;;;;;;;20.87;76.14;97482.25;4178596;28;20636;-91
2022/05/24 10:04:36;;;;;;;1.77;0.90;;;;;;;21.16;75.24;97484.88;4178140;28;20629;-92
2022/05/24 10:06:53;;;;;;;3.70;0.97;;;;;;;21.30;76.29;97490.16;4178244;28;21589;-91
2022/05/24 10:08:59;;;;;;;5.87;0.80;;;;;;;21.02;73.11;97489.19;4161510;28;20694;-90
2022/05/24 10:11:03;;;;;;;1.60;1.00;;;;;;;21.23;76.16;97493.72;4179728;28;20677;-91
2022/05/24 10:13:14;;;;;;;4.20;1.00;;;;;;;21.43;75.20;97490.31;4174691;28;20636;-92
2022/05/24 10:15:23;;;;;;;1.53;0.80;;;;;;;21.48;71.06;97491.41;4191563;28;20641;-91
2022/05/24 10:17:32;;;;;;;2.37;1.00;;;;;;;21.40;73.55;97491.50;4155978;28;20621;-92
2022/05/24 10:19:48;;;;;;;2.23;0.87;;;;;;;21.20;71.52;97491.44;4161691;28;20671;-92
2022/05/24 10:22:01;;;;;;;4.13;0.70;;;;;;;21.08;73.83;97492.91;4193877;28;21205;-91
2022/05/24 10:24:18;;;;;;;2.70;1.10;;;;;;;20.98;72.23;97487.88;4160511;28;20643;-91
2022/05/24 10:26:33;;;;;;;1.97;0.90;;;;;;;21.10;72.42;97490.91;4192027;28;20655;-90